sensor_id;sensor_type;location;lat;lon;timestamp;P1;durP1;ratioP1;P2;durP2;ratioP2
56599;SDS011;51832;48.152;11.530;2024-01-16T00:01:06;4.20;;;2.30;;
56599;SDS011;51832;48.152;11.530;2024-01-16T00:06:06;3.83;;;2.42;;
56599;SDS011;51832;48.152;11.530;2024-01-16T00:11:07;6.38;;;2.60;;
56599;SDS011;51832;48.152;11.530;2024-01-16T00:16:08;2.70;;;1.95;;
56599;SDS011;51832;48.152;11.530;2024-01-16T00:21:08;3.42;;;1.98;;
56599;SDS011;51832;48.152;11.530;2024-01-16T00:26:18;4.65;;;2.03;;
56599;SDS011;51832;48.152;11.530;2024-01-16T00:31:19;3.78;;;1.90;;
56599;SDS011;51832;48.152;11.530;2024-01-16T00:36:20;3.85;;;2.13;;
56599;SDS011;51832;48.152;11.530;2024-01-16T00:41:20;2.63;;;1.58;;
56599;SDS011;51832;48.152;11.530;2024-01-16T00:46:21;6.15;;;1.83;;
56599;SDS011;51832;48.152;11.530;2024-01-16T00:51:21;2.50;;;1.95;;
56599;SDS011;51832;48.152;11.530;2024-01-16T00:56:22;3.95;;;2.00;;
56599;SDS011;51832;48.152;11.530;2024-01-16T01:01:22;4.45;;;1.75;;
56599;SDS011;51832;48.152;11.530;2024-01-16T01:06:23;3.97;;;2.20;;
56599;SDS011;51832;48.152;11.530;2024-01-16T01:11:23;2.88;;;1.83;;
56599;SDS011;51832;48.152;11.530;2024-01-16T01:16:24;3.45;;;1.75;;
56599;SDS011;51832;48.152;11.530;2024-01-16T01:21:24;3.10;;;1.83;;
56599;SDS011;51832;48.152;11.530;2024-01-16T01:26:25;4.95;;;2.60;;
56599;SDS011;51832;48.152;11.530;2024-01-16T01:31:25;4.40;;;1.77;;
56599;SDS011;51832;48.152;11.530;2024-01-16T01:36:26;3.10;;;1.80;;
56599;SDS011;51832;48.152;11.530;2024-01-16T01:41:27;4.78;;;2.00;;
56599;SDS011;51832;48.152;11.530;2024-01-16T01:46:27;5.88;;;1.90;;
56599;SDS011;51832;48.152;11.530;2024-01-16T01:51:29;5.97;;;1.83;;
56599;SDS011;51832;48.152;11.530;2024-01-16T01:56:29;1.92;;;1.20;;
56599;SDS011;51832;48.152;11.530;2024-01-16T02:01:30;3.13;;;1.60;;
56599;SDS011;51832;48.152;11.530;2024-01-16T02:06:32;6.13;;;2.05;;
56599;SDS011;51832;48.152;11.530;2024-01-16T02:11:32;1.95;;;1.08;;
56599;SDS011;51832;48.152;11.530;2024-01-16T02:16:36;3.20;;;1.90;;
56599;SDS011;51832;48.152;11.530;2024-01-16T02:21:47;4.57;;;2.40;;
56599;SDS011;51832;48.152;11.530;2024-01-16T02:26:48;3.50;;;1.80;;
56599;SDS011;51832;48.152;11.530;2024-01-16T02:31:49;4.53;;;1.83;;
56599;SDS011;51832;48.152;11.530;2024-01-16T02:36:49;3.95;;;1.92;;
56599;SDS011;51832;48.152;11.530;2024-01-16T02:41:51;3.92;;;1.73;;
56599;SDS011;51832;48.152;11.530;2024-01-16T02:46:51;2.33;;;1.30;;
56599;SDS011;51832;48.152;11.530;2024-01-16T02:51:51;2.70;;;1.67;;
56599;SDS011;51832;48.152;11.530;2024-01-16T02:56:52;3.40;;;1.80;;
56599;SDS011;51832;48.152;11.530;2024-01-16T03:01:53;1.92;;;1.52;;
56599;SDS011;51832;48.152;11.530;2024-01-16T03:06:53;5.32;;;2.90;;
56599;SDS011;51832;48.152;11.530;2024-01-16T03:11:54;5.15;;;1.58;;
56599;SDS011;51832;48.152;11.530;2024-01-16T03:16:54;2.58;;;1.90;;
56599;SDS011;51832;48.152;11.530;2024-01-16T03:21:55;2.75;;;1.90;;
56599;SDS011;51832;48.152;11.530;2024-01-16T03:26:55;2.85;;;1.90;;
56599;SDS011;51832;48.152;11.530;2024-01-16T03:31:56;3.38;;;1.60;;
56599;SDS011;51832;48.152;11.530;2024-01-16T03:36:57;6.50;;;1.73;;
56599;SDS011;51832;48.152;11.530;2024-01-16T03:41:57;3.53;;;2.20;;
56599;SDS011;51832;48.152;11.530;2024-01-16T03:46:58;3.25;;;2.10;;
56599;SDS011;51832;48.152;11.530;2024-01-16T03:51:58;1.88;;;1.55;;
56599;SDS011;51832;48.152;11.530;2024-01-16T03:56:59;4.70;;;1.58;;
56599;SDS011;51832;48.152;11.530;2024-01-16T04:02:00;2.50;;;1.67;;
56599;SDS011;51832;48.152;11.530;2024-01-16T04:07:00;6.13;;;1.65;;
56599;SDS011;51832;48.152;11.530;2024-01-16T04:12:01;3.83;;;1.90;;
56599;SDS011;51832;48.152;11.530;2024-01-16T04:17:01;2.92;;;1.85;;
56599;SDS011;51832;48.152;11.530;2024-01-16T04:22:02;2.40;;;1.95;;
56599;SDS011;51832;48.152;11.530;2024-01-16T04:27:04;3.33;;;2.33;;
56599;SDS011;51832;48.152;11.530;2024-01-16T04:32:05;4.80;;;1.60;;
56599;SDS011;51832;48.152;11.530;2024-01-16T04:37:05;3.88;;;2.10;;
56599;SDS011;51832;48.152;11.530;2024-01-16T04:42:06;4.22;;;2.20;;
56599;SDS011;51832;48.152;11.530;2024-01-16T04:47:06;3.53;;;1.98;;
56599;SDS011;51832;48.152;11.530;2024-01-16T04:52:07;6.38;;;1.92;;
56599;SDS011;51832;48.152;11.530;2024-01-16T04:57:07;4.47;;;2.20;;
56599;SDS011;51832;48.152;11.530;2024-01-16T05:02:08;3.20;;;2.38;;
56599;SDS011;51832;48.152;11.530;2024-01-16T05:07:08;4.47;;;1.88;;
56599;SDS011;51832;48.152;11.530;2024-01-16T05:12:08;3.53;;;1.63;;
56599;SDS011;51832;48.152;11.530;2024-01-16T05:17:09;3.65;;;1.80;;
56599;SDS011;51832;48.152;11.530;2024-01-16T05:22:10;4.05;;;1.85;;
56599;SDS011;51832;48.152;11.530;2024-01-16T05:27:11;2.38;;;1.67;;
56599;SDS011;51832;48.152;11.530;2024-01-16T05:32:11;5.43;;;2.63;;
56599;SDS011;51832;48.152;11.530;2024-01-16T05:37:13;5.33;;;2.20;;
56599;SDS011;51832;48.152;11.530;2024-01-16T05:42:14;5.95;;;2.80;;
56599;SDS011;51832;48.152;11.530;2024-01-16T05:47:14;3.65;;;2.50;;
56599;SDS011;51832;48.152;11.530;2024-01-16T05:52:15;3.92;;;1.98;;
56599;SDS011;51832;48.152;11.530;2024-01-16T05:57:15;5.47;;;2.05;;
56599;SDS011;51832;48.152;11.530;2024-01-16T06:02:16;4.93;;;2.00;;
56599;SDS011;51832;48.152;11.530;2024-01-16T06:07:16;3.13;;;2.08;;
56599;SDS011;51832;48.152;11.530;2024-01-16T06:12:17;2.35;;;1.48;;
56599;SDS011;51832;48.152;11.530;2024-01-16T06:17:18;4.15;;;1.95;;
56599;SDS011;51832;48.152;11.530;2024-01-16T06:22:18;3.67;;;2.03;;
56599;SDS011;51832;48.152;11.530;2024-01-16T06:27:19;5.55;;;2.08;;
56599;SDS011;51832;48.152;11.530;2024-01-16T06:32:19;2.60;;;1.95;;
56599;SDS011;51832;48.152;11.530;2024-01-16T06:37:20;4.03;;;2.00;;
56599;SDS011;51832;48.152;11.530;2024-01-16T06:42:20;4.20;;;2.30;;
56599;SDS011;51832;48.152;11.530;2024-01-16T06:47:21;9.00;;;2.35;;
56599;SDS011;51832;48.152;11.530;2024-01-16T06:52:21;3.80;;;2.17;;
56599;SDS011;51832;48.152;11.530;2024-01-16T06:57:22;3.90;;;1.92;;
56599;SDS011;51832;48.152;11.530;2024-01-16T07:02:22;5.63;;;2.35;;
56599;SDS011;51832;48.152;11.530;2024-01-16T07:07:23;4.40;;;2.30;;
56599;SDS011;51832;48.152;11.530;2024-01-16T07:12:24;3.72;;;2.17;;
56599;SDS011;51832;48.152;11.530;2024-01-16T07:17:25;4.80;;;2.25;;
56599;SDS011;51832;48.152;11.530;2024-01-16T07:22:25;4.50;;;2.33;;
56599;SDS011;51832;48.152;11.530;2024-01-16T07:27:27;4.47;;;1.83;;
56599;SDS011;51832;48.152;11.530;2024-01-16T07:32:27;5.32;;;1.98;;
56599;SDS011;51832;48.152;11.530;2024-01-16T07:37:28;3.50;;;2.00;;
56599;SDS011;51832;48.152;11.530;2024-01-16T07:42:28;7.40;;;2.28;;
56599;SDS011;51832;48.152;11.530;2024-01-16T07:47:34;2.88;;;1.80;;
56599;SDS011;51832;48.152;11.530;2024-01-16T07:52:36;4.30;;;1.98;;
56599;SDS011;51832;48.152;11.530;2024-01-16T07:57:36;5.05;;;2.00;;
56599;SDS011;51832;48.152;11.530;2024-01-16T08:02:38;4.70;;;2.20;;
56599;SDS011;51832;48.152;11.530;2024-01-16T08:07:38;4.53;;;2.58;;
56599;SDS011;51832;48.152;11.530;2024-01-16T08:12:39;5.97;;;2.60;;
56599;SDS011;51832;48.152;11.530;2024-01-16T08:17:39;5.18;;;2.40;;
56599;SDS011;51832;48.152;11.530;2024-01-16T08:22:40;6.63;;;2.10;;
56599;SDS011;51832;48.152;11.530;2024-01-16T08:27:40;6.35;;;2.60;;
56599;SDS011;51832;48.152;11.530;2024-01-16T08:32:40;4.70;;;2.45;;
56599;SDS011;51832;48.152;11.530;2024-01-16T08:37:41;4.57;;;2.50;;
56599;SDS011;51832;48.152;11.530;2024-01-16T08:42:41;5.07;;;2.95;;
56599;SDS011;51832;48.152;11.530;2024-01-16T08:47:42;5.90;;;2.58;;
56599;SDS011;51832;48.152;11.530;2024-01-16T08:52:43;6.22;;;2.72;;
56599;SDS011;51832;48.152;11.530;2024-01-16T08:57:43;5.35;;;2.50;;
56599;SDS011;51832;48.152;11.530;2024-01-16T09:02:44;5.68;;;2.83;;
56599;SDS011;51832;48.152;11.530;2024-01-16T09:07:44;4.57;;;2.72;;
56599;SDS011;51832;48.152;11.530;2024-01-16T09:12:44;6.32;;;2.80;;
56599;SDS011;51832;48.152;11.530;2024-01-16T09:17:45;6.28;;;3.50;;
56599;SDS011;51832;48.152;11.530;2024-01-16T09:22:45;5.72;;;2.95;;
56599;SDS011;51832;48.152;11.530;2024-01-16T09:27:46;5.40;;;2.55;;
56599;SDS011;51832;48.152;11.530;2024-01-16T09:32:46;5.97;;;2.75;;
56599;SDS011;51832;48.152;11.530;2024-01-16T09:37:47;5.75;;;2.65;;
56599;SDS011;51832;48.152;11.530;2024-01-16T09:42:47;4.97;;;2.50;;
56599;SDS011;51832;48.152;11.530;2024-01-16T09:47:49;5.63;;;3.42;;
56599;SDS011;51832;48.152;11.530;2024-01-16T09:52:51;8.48;;;2.78;;
56599;SDS011;51832;48.152;11.530;2024-01-16T09:57:51;5.32;;;3.05;;
56599;SDS011;51832;48.152;11.530;2024-01-16T10:02:53;7.65;;;3.15;;
56599;SDS011;51832;48.152;11.530;2024-01-16T10:07:58;5.20;;;2.30;;
56599;SDS011;51832;48.152;11.530;2024-01-16T10:12:59;4.55;;;2.53;;
56599;SDS011;51832;48.152;11.530;2024-01-16T10:18:00;6.93;;;2.58;;
56599;SDS011;51832;48.152;11.530;2024-01-16T10:23:00;4.45;;;2.35;;
56599;SDS011;51832;48.152;11.530;2024-01-16T10:28:04;6.32;;;2.63;;
56599;SDS011;51832;48.152;11.530;2024-01-16T10:33:14;5.97;;;2.47;;
56599;SDS011;51832;48.152;11.530;2024-01-16T10:38:19;5.00;;;2.42;;
56599;SDS011;51832;48.152;11.530;2024-01-16T10:43:22;6.57;;;2.45;;
56599;SDS011;51832;48.152;11.530;2024-01-16T10:48:22;4.95;;;2.72;;
56599;SDS011;51832;48.152;11.530;2024-01-16T10:53:23;7.07;;;2.70;;
56599;SDS011;51832;48.152;11.530;2024-01-16T10:58:27;4.53;;;2.15;;
56599;SDS011;51832;48.152;11.530;2024-01-16T11:03:35;6.68;;;2.72;;
56599;SDS011;51832;48.152;11.530;2024-01-16T11:08:40;5.10;;;2.97;;
56599;SDS011;51832;48.152;11.530;2024-01-16T11:13:41;5.82;;;2.50;;
56599;SDS011;51832;48.152;11.530;2024-01-16T11:18:44;4.45;;;2.10;;
56599;SDS011;51832;48.152;11.530;2024-01-16T11:23:45;3.38;;;2.05;;
56599;SDS011;51832;48.152;11.530;2024-01-16T11:28:46;3.33;;;2.05;;
56599;SDS011;51832;48.152;11.530;2024-01-16T11:33:47;3.55;;;1.95;;
56599;SDS011;51832;48.152;11.530;2024-01-16T11:38:47;2.67;;;1.70;;
56599;SDS011;51832;48.152;11.530;2024-01-16T11:43:55;5.00;;;1.67;;
56599;SDS011;51832;48.152;11.530;2024-01-16T11:49:02;3.60;;;1.67;;
56599;SDS011;51832;48.152;11.530;2024-01-16T11:54:03;3.55;;;1.40;;
56599;SDS011;51832;48.152;11.530;2024-01-16T12:04:31;3.95;;;1.73;;
56599;SDS011;51832;48.152;11.530;2024-01-16T12:09:32;1.67;;;1.27;;
56599;SDS011;51832;48.152;11.530;2024-01-16T12:14:33;6.93;;;1.00;;
56599;SDS011;51832;48.152;11.530;2024-01-16T12:19:34;2.67;;;1.30;;
56599;SDS011;51832;48.152;11.530;2024-01-16T12:24:35;1.95;;;1.27;;
56599;SDS011;51832;48.152;11.530;2024-01-16T12:29:36;4.65;;;1.63;;
56599;SDS011;51832;48.152;11.530;2024-01-16T12:34:47;1.42;;;1.23;;
56599;SDS011;51832;48.152;11.530;2024-01-16T12:39:48;3.15;;;1.73;;
56599;SDS011;51832;48.152;11.530;2024-01-16T12:44:50;3.07;;;1.37;;
56599;SDS011;51832;48.152;11.530;2024-01-16T12:49:51;4.78;;;1.67;;
56599;SDS011;51832;48.152;11.530;2024-01-16T12:54:58;4.65;;;2.53;;
56599;SDS011;51832;48.152;11.530;2024-01-16T13:05:25;4.18;;;2.00;;
56599;SDS011;51832;48.152;11.530;2024-01-16T13:10:27;3.90;;;1.70;;
56599;SDS011;51832;48.152;11.530;2024-01-16T13:15:27;3.97;;;2.20;;
56599;SDS011;51832;48.152;11.530;2024-01-16T13:20:28;3.67;;;1.70;;
56599;SDS011;51832;48.152;11.530;2024-01-16T13:25:28;3.47;;;1.95;;
56599;SDS011;51832;48.152;11.530;2024-01-16T13:30:28;5.22;;;2.15;;
56599;SDS011;51832;48.152;11.530;2024-01-16T13:35:29;2.75;;;1.67;;
56599;SDS011;51832;48.152;11.530;2024-01-16T13:40:30;4.10;;;2.17;;
56599;SDS011;51832;48.152;11.530;2024-01-16T13:45:30;1.95;;;1.50;;
56599;SDS011;51832;48.152;11.530;2024-01-16T13:50:31;4.97;;;2.83;;
56599;SDS011;51832;48.152;11.530;2024-01-16T13:55:33;4.30;;;1.83;;
56599;SDS011;51832;48.152;11.530;2024-01-16T14:00:33;4.22;;;2.05;;
56599;SDS011;51832;48.152;11.530;2024-01-16T14:05:34;3.25;;;1.90;;
56599;SDS011;51832;48.152;11.530;2024-01-16T14:10:36;8.40;;;2.55;;
56599;SDS011;51832;48.152;11.530;2024-01-16T14:15:36;2.15;;;1.70;;
56599;SDS011;51832;48.152;11.530;2024-01-16T14:20:36;3.08;;;2.42;;
56599;SDS011;51832;48.152;11.530;2024-01-16T14:25:37;6.50;;;2.70;;
56599;SDS011;51832;48.152;11.530;2024-01-16T14:30:37;3.58;;;2.60;;
56599;SDS011;51832;48.152;11.530;2024-01-16T14:35:40;5.13;;;3.17;;
56599;SDS011;51832;48.152;11.530;2024-01-16T14:40:40;6.85;;;2.83;;
56599;SDS011;51832;48.152;11.530;2024-01-16T14:45:41;6.88;;;3.70;;
56599;SDS011;51832;48.152;11.530;2024-01-16T14:50:41;4.78;;;3.08;;
56599;SDS011;51832;48.152;11.530;2024-01-16T14:55:43;6.10;;;3.67;;
56599;SDS011;51832;48.152;11.530;2024-01-16T15:00:43;5.80;;;3.38;;
56599;SDS011;51832;48.152;11.530;2024-01-16T15:05:49;6.63;;;3.72;;
56599;SDS011;51832;48.152;11.530;2024-01-16T15:10:51;5.13;;;3.08;;
56599;SDS011;51832;48.152;11.530;2024-01-16T15:15:51;6.13;;;3.13;;
56599;SDS011;51832;48.152;11.530;2024-01-16T15:20:54;8.50;;;3.00;;
56599;SDS011;51832;48.152;11.530;2024-01-16T15:25:55;7.47;;;3.50;;
56599;SDS011;51832;48.152;11.530;2024-01-16T15:31:00;6.88;;;3.08;;
56599;SDS011;51832;48.152;11.530;2024-01-16T15:36:07;4.97;;;3.15;;
56599;SDS011;51832;48.152;11.530;2024-01-16T15:41:07;11.38;;;6.10;;
56599;SDS011;51832;48.152;11.530;2024-01-16T15:46:08;7.68;;;3.85;;
56599;SDS011;51832;48.152;11.530;2024-01-16T15:51:08;5.00;;;3.20;;
56599;SDS011;51832;48.152;11.530;2024-01-16T15:56:10;6.88;;;3.22;;
56599;SDS011;51832;48.152;11.530;2024-01-16T16:01:11;4.60;;;2.33;;
56599;SDS011;51832;48.152;11.530;2024-01-16T16:06:11;5.18;;;3.00;;
56599;SDS011;51832;48.152;11.530;2024-01-16T16:11:12;6.50;;;2.85;;
56599;SDS011;51832;48.152;11.530;2024-01-16T16:16:13;6.00;;;2.53;;
56599;SDS011;51832;48.152;11.530;2024-01-16T16:21:13;4.28;;;2.60;;
56599;SDS011;51832;48.152;11.530;2024-01-16T16:26:17;4.25;;;2.45;;
56599;SDS011;51832;48.152;11.530;2024-01-16T16:31:30;7.20;;;3.30;;
56599;SDS011;51832;48.152;11.530;2024-01-16T16:36:31;3.90;;;2.60;;
56599;SDS011;51832;48.152;11.530;2024-01-16T16:41:32;5.82;;;3.15;;
56599;SDS011;51832;48.152;11.530;2024-01-16T16:46:38;5.55;;;3.03;;
56599;SDS011;51832;48.152;11.530;2024-01-16T16:51:39;5.72;;;3.10;;
56599;SDS011;51832;48.152;11.530;2024-01-16T16:56:41;7.60;;;4.18;;
56599;SDS011;51832;48.152;11.530;2024-01-16T17:01:44;8.18;;;3.95;;
56599;SDS011;51832;48.152;11.530;2024-01-16T17:06:44;13.43;;;6.25;;
56599;SDS011;51832;48.152;11.530;2024-01-16T17:11:45;9.38;;;4.95;;
56599;SDS011;51832;48.152;11.530;2024-01-16T17:16:45;7.43;;;4.13;;
56599;SDS011;51832;48.152;11.530;2024-01-16T17:21:46;5.53;;;3.05;;
56599;SDS011;51832;48.152;11.530;2024-01-16T17:26:46;10.35;;;3.80;;
56599;SDS011;51832;48.152;11.530;2024-01-16T17:31:47;10.13;;;4.32;;
56599;SDS011;51832;48.152;11.530;2024-01-16T17:36:47;7.15;;;3.67;;
56599;SDS011;51832;48.152;11.530;2024-01-16T17:41:47;7.20;;;4.50;;
56599;SDS011;51832;48.152;11.530;2024-01-16T17:46:48;4.97;;;3.50;;
56599;SDS011;51832;48.152;11.530;2024-01-16T17:51:48;11.48;;;5.30;;
56599;SDS011;51832;48.152;11.530;2024-01-16T17:56:49;9.00;;;5.10;;
56599;SDS011;51832;48.152;11.530;2024-01-16T18:01:50;9.52;;;4.80;;
56599;SDS011;51832;48.152;11.530;2024-01-16T18:06:50;12.00;;;5.95;;
56599;SDS011;51832;48.152;11.530;2024-01-16T18:11:55;10.57;;;6.13;;
56599;SDS011;51832;48.152;11.530;2024-01-16T18:16:57;11.60;;;6.03;;
56599;SDS011;51832;48.152;11.530;2024-01-16T18:21:57;11.85;;;5.70;;
56599;SDS011;51832;48.152;11.530;2024-01-16T18:26:58;11.10;;;5.68;;
56599;SDS011;51832;48.152;11.530;2024-01-16T18:31:59;10.48;;;5.20;;
56599;SDS011;51832;48.152;11.530;2024-01-16T18:37:03;11.10;;;5.90;;
56599;SDS011;51832;48.152;11.530;2024-01-16T18:42:03;9.18;;;5.13;;
56599;SDS011;51832;48.152;11.530;2024-01-16T18:47:05;12.90;;;5.88;;
56599;SDS011;51832;48.152;11.530;2024-01-16T18:52:06;9.77;;;4.85;;
56599;SDS011;51832;48.152;11.530;2024-01-16T18:57:06;9.55;;;5.22;;
56599;SDS011;51832;48.152;11.530;2024-01-16T19:02:07;11.52;;;4.97;;
56599;SDS011;51832;48.152;11.530;2024-01-16T19:07:07;14.00;;;6.22;;
56599;SDS011;51832;48.152;11.530;2024-01-16T19:12:14;11.20;;;5.57;;
56599;SDS011;51832;48.152;11.530;2024-01-16T19:17:15;7.72;;;4.97;;
56599;SDS011;51832;48.152;11.530;2024-01-16T19:22:15;9.85;;;4.70;;
56599;SDS011;51832;48.152;11.530;2024-01-16T19:27:16;11.43;;;5.50;;
56599;SDS011;51832;48.152;11.530;2024-01-16T19:32:21;9.88;;;5.03;;
56599;SDS011;51832;48.152;11.530;2024-01-16T19:37:21;9.30;;;5.30;;
56599;SDS011;51832;48.152;11.530;2024-01-16T19:42:21;9.00;;;4.93;;
56599;SDS011;51832;48.152;11.530;2024-01-16T19:47:23;8.40;;;5.20;;
56599;SDS011;51832;48.152;11.530;2024-01-16T19:52:24;8.00;;;5.05;;
56599;SDS011;51832;48.152;11.530;2024-01-16T19:57:24;10.55;;;5.55;;
56599;SDS011;51832;48.152;11.530;2024-01-16T20:02:25;11.55;;;5.72;;
56599;SDS011;51832;48.152;11.530;2024-01-16T20:07:25;10.90;;;6.13;;
56599;SDS011;51832;48.152;11.530;2024-01-16T20:12:26;11.18;;;6.15;;
56599;SDS011;51832;48.152;11.530;2024-01-16T20:17:27;11.68;;;6.20;;
56599;SDS011;51832;48.152;11.530;2024-01-16T20:22:27;12.05;;;6.18;;
56599;SDS011;51832;48.152;11.530;2024-01-16T20:27:29;12.18;;;6.32;;
56599;SDS011;51832;48.152;11.530;2024-01-16T20:32:30;12.25;;;6.07;;
56599;SDS011;51832;48.152;11.530;2024-01-16T20:37:30;15.05;;;7.68;;
56599;SDS011;51832;48.152;11.530;2024-01-16T20:42:33;12.93;;;7.30;;
56599;SDS011;51832;48.152;11.530;2024-01-16T20:47:33;14.10;;;7.70;;
56599;SDS011;51832;48.152;11.530;2024-01-16T20:52:34;11.38;;;6.50;;
56599;SDS011;51832;48.152;11.530;2024-01-16T20:57:34;16.98;;;7.72;;
56599;SDS011;51832;48.152;11.530;2024-01-16T21:02:35;12.60;;;6.88;;
56599;SDS011;51832;48.152;11.530;2024-01-16T21:07:36;15.23;;;7.32;;
56599;SDS011;51832;48.152;11.530;2024-01-16T21:12:36;12.30;;;7.50;;
56599;SDS011;51832;48.152;11.530;2024-01-16T21:17:37;13.27;;;6.80;;
56599;SDS011;51832;48.152;11.530;2024-01-16T21:22:38;12.52;;;7.60;;
56599;SDS011;51832;48.152;11.530;2024-01-16T21:27:38;12.40;;;6.55;;
56599;SDS011;51832;48.152;11.530;2024-01-16T21:32:39;13.50;;;7.75;;
56599;SDS011;51832;48.152;11.530;2024-01-16T21:37:40;12.45;;;7.00;;
56599;SDS011;51832;48.152;11.530;2024-01-16T21:42:40;13.82;;;7.35;;
56599;SDS011;51832;48.152;11.530;2024-01-16T21:47:41;12.60;;;7.25;;
56599;SDS011;51832;48.152;11.530;2024-01-16T21:52:42;14.68;;;7.47;;
56599;SDS011;51832;48.152;11.530;2024-01-16T21:57:43;13.43;;;7.20;;
56599;SDS011;51832;48.152;11.530;2024-01-16T22:02:44;15.88;;;7.13;;
56599;SDS011;51832;48.152;11.530;2024-01-16T22:07:44;12.75;;;6.75;;
56599;SDS011;51832;48.152;11.530;2024-01-16T22:12:45;15.40;;;6.85;;
56599;SDS011;51832;48.152;11.530;2024-01-16T22:17:45;11.05;;;6.50;;
56599;SDS011;51832;48.152;11.530;2024-01-16T22:22:46;14.15;;;7.03;;
56599;SDS011;51832;48.152;11.530;2024-01-16T22:27:47;12.55;;;6.10;;
56599;SDS011;51832;48.152;11.530;2024-01-16T22:32:47;10.52;;;5.80;;
56599;SDS011;51832;48.152;11.530;2024-01-16T22:37:48;12.93;;;6.70;;
56599;SDS011;51832;48.152;11.530;2024-01-16T22:42:49;13.25;;;6.30;;
56599;SDS011;51832;48.152;11.530;2024-01-16T22:47:49;10.55;;;6.10;;
56599;SDS011;51832;48.152;11.530;2024-01-16T22:52:51;14.98;;;6.72;;
56599;SDS011;51832;48.152;11.530;2024-01-16T22:57:51;10.23;;;6.25;;
56599;SDS011;51832;48.152;11.530;2024-01-16T23:02:52;11.52;;;5.90;;
56599;SDS011;51832;48.152;11.530;2024-01-16T23:07:52;10.95;;;6.22;;
56599;SDS011;51832;48.152;11.530;2024-01-16T23:12:53;13.93;;;6.47;;
56599;SDS011;51832;48.152;11.530;2024-01-16T23:17:53;11.27;;;6.57;;
56599;SDS011;51832;48.152;11.530;2024-01-16T23:22:55;13.13;;;6.75;;
56599;SDS011;51832;48.152;11.530;2024-01-16T23:27:55;12.32;;;6.38;;
56599;SDS011;51832;48.152;11.530;2024-01-16T23:32:56;8.30;;;4.97;;
56599;SDS011;51832;48.152;11.530;2024-01-16T23:37:57;12.00;;;5.30;;
56599;SDS011;51832;48.152;11.530;2024-01-16T23:42:59;9.83;;;5.53;;
56599;SDS011;51832;48.152;11.530;2024-01-16T23:48:00;8.18;;;5.22;;
56599;SDS011;51832;48.152;11.530;2024-01-16T23:53:01;11.38;;;5.63;;
56599;SDS011;51832;48.152;11.530;2024-01-16T23:58:02;11.75;;;5.68;;
